createdAt,value
2016-04-30T00:00:01.925Z,7.5
2016-04-30T00:00:11.925Z,7.6
2016-04-30T00:00:21.928Z,7.5
2016-04-30T00:00:31.928Z,7.6
2016-04-30T00:00:41.944Z,7.6
2016-04-30T00:00:51.928Z,7.5
2016-04-30T00:01:01.944Z,7.5
2016-04-30T00:01:11.928Z,7.5
2016-04-30T00:01:21.947Z,7.6
2016-04-30T00:01:31.947Z,7.6
2016-04-30T00:01:41.947Z,7.5
2016-04-30T00:01:51.947Z,7.6
2016-04-30T00:02:01.947Z,7.5
2016-04-30T00:02:11.963Z,7.6
2016-04-30T00:02:21.793Z,7.6
2016-04-30T00:02:31.949Z,7.5
2016-04-30T00:02:41.793Z,7.5
2016-04-30T00:02:51.949Z,7.5
2016-04-30T00:03:01.949Z,7.5
2016-04-30T00:03:11.808Z,7.5
2016-04-30T00:03:21.982Z,7.6
2016-04-30T00:03:32.076Z,7.6
2016-04-30T00:03:42.201Z,7.6
2016-04-30T00:03:52.170Z,7.5
2016-04-30T00:04:02.092Z,7.5
2016-04-30T00:04:11.967Z,7.6
2016-04-30T00:04:21.955Z,7.5
2016-04-30T00:04:31.955Z,7.5
2016-04-30T00:04:41.971Z,7.5
2016-04-30T00:04:51.971Z,7.5
2016-04-30T00:05:01.971Z,7.4
2016-04-30T00:05:11.971Z,7.5
2016-04-30T00:05:21.973Z,7.5
2016-04-30T00:05:31.816Z,7.5
2016-04-30T00:05:41.973Z,7.5
2016-04-30T00:05:51.988Z,7.5
2016-04-30T00:06:01.832Z,7.4
2016-04-30T00:06:11.973Z,7.5
2016-04-30T00:06:21.991Z,7.5
2016-04-30T00:06:31.991Z,7.4
2016-04-30T00:06:41.976Z,7.5
2016-04-30T00:06:51.976Z,7.4
2016-04-30T00:07:01.991Z,7.4
2016-04-30T00:07:11.991Z,7.4
2016-04-30T00:07:21.994Z,7.4
2016-04-30T00:07:31.994Z,7.3
2016-04-30T00:07:42.010Z,7.4
2016-04-30T00:07:52.010Z,7.4
2016-04-30T00:08:01.994Z,7.4
2016-04-30T00:08:11.994Z,7.4
2016-04-30T00:08:21.996Z,7.4
2016-04-30T00:08:31.996Z,7.4
2016-04-30T00:08:42.012Z,7.4
2016-04-30T00:08:52.012Z,7.3
2016-04-30T00:09:02.012Z,7.5
2016-04-30T00:09:12.012Z,7.4
2016-04-30T00:09:22.015Z,7.4
2016-04-30T00:09:32.031Z,7.3
2016-04-30T00:09:41.999Z,7.3
2016-04-30T00:09:52.015Z,7.3
2016-04-30T00:10:02.031Z,7.3
2016-04-30T00:10:12.015Z,7.3
2016-04-30T00:10:22.018Z,7.3
2016-04-30T00:10:32.018Z,7.3
2016-04-30T00:10:42.018Z,7.4
2016-04-30T00:10:52.034Z,7.4
2016-04-30T00:11:02.018Z,7.4
2016-04-30T00:11:11.877Z,7.3
2016-04-30T00:11:22.036Z,7.3
2016-04-30T00:11:32.020Z,7.3
2016-04-30T00:11:42.036Z,7.3
2016-04-30T00:11:52.036Z,7.3
2016-04-30T00:12:02.036Z,7.3
2016-04-30T00:12:12.036Z,7.2
2016-04-30T00:12:22.039Z,7.2
2016-04-30T00:12:32.039Z,7.3
2016-04-30T00:12:42.039Z,7.3
2016-04-30T00:12:52.039Z,7.3
2016-04-30T00:13:02.039Z,7.3
2016-04-30T00:13:12.039Z,7.2
2016-04-30T00:13:22.042Z,7.3
2016-04-30T00:13:31.885Z,7.2
2016-04-30T00:13:42.042Z,7.3
2016-04-30T00:13:52.042Z,7.3
2016-04-30T00:14:02.057Z,7.3
2016-04-30T00:14:12.042Z,7.2
2016-04-30T00:14:22.060Z,7.2
2016-04-30T00:14:32.060Z,7.3
2016-04-30T00:14:42.060Z,7.2
2016-04-30T00:14:51.904Z,7.2
2016-04-30T00:15:02.045Z,7.2
2016-04-30T00:15:11.904Z,7.2
2016-04-30T00:15:22.062Z,7.3
2016-04-30T00:15:32.047Z,7.3
2016-04-30T00:15:42.062Z,7.2
2016-04-30T00:15:52.062Z,7.2
2016-04-30T00:16:02.062Z,7.2
2016-04-30T00:16:12.062Z,7.1
2016-04-30T00:16:21.909Z,7.2
2016-04-30T00:16:32.065Z,7.2
2016-04-30T00:16:42.065Z,7.2
2016-04-30T00:16:52.081Z,7.1
2016-04-30T00:17:02.081Z,7.2
2016-04-30T00:17:12.065Z,7.2
2016-04-30T00:17:22.083Z,7.2
2016-04-30T00:17:31.942Z,7.3
2016-04-30T00:17:42.083Z,7.3
2016-04-30T00:17:52.083Z,7.2
2016-04-30T00:18:02.083Z,7.2
2016-04-30T00:18:12.145Z,7.2
2016-04-30T00:18:22.086Z,7.2
2016-04-30T00:18:31.961Z,7.2
2016-04-30T00:18:42.101Z,7.1
2016-04-30T00:18:52.086Z,7.2
2016-04-30T00:19:01.945Z,7.2
2016-04-30T00:19:12.086Z,7.1
2016-04-30T00:19:22.089Z,7.1
2016-04-30T00:19:31.948Z,7.1
2016-04-30T00:19:42.104Z,7.1
2016-04-30T00:19:51.948Z,7.2
2016-04-30T00:20:02.089Z,7.1
2016-04-30T00:20:12.104Z,7.1
2016-04-30T00:20:22.092Z,7.1
2016-04-30T00:20:32.107Z,7.2
2016-04-30T00:20:42.107Z,7.1
2016-04-30T00:20:52.107Z,7.1
2016-04-30T00:21:02.107Z,7.1
2016-04-30T00:21:12.123Z,7.1
2016-04-30T00:21:21.953Z,7.2
2016-04-30T00:21:31.953Z,7.1
2016-04-30T00:21:42.109Z,7.1
2016-04-30T00:21:52.109Z,7.1
2016-04-30T00:22:02.125Z,7.1
2016-04-30T00:22:12.109Z,7.1
2016-04-30T00:22:22.128Z,7.1
2016-04-30T00:22:32.128Z,7.1
2016-04-30T00:22:42.112Z,7
2016-04-30T00:22:52.144Z,7.1
2016-04-30T00:23:02.128Z,7.1
2016-04-30T00:23:12.128Z,7.1
2016-04-30T00:23:22.131Z,7.1
2016-04-30T00:23:32.131Z,7.1
2016-04-30T00:23:42.131Z,7.1
2016-04-30T00:23:52.131Z,7
2016-04-30T00:24:02.131Z,7.1
2016-04-30T00:24:12.131Z,7.1
2016-04-30T00:24:22.133Z,7
2016-04-30T00:24:32.133Z,7.1
2016-04-30T00:24:42.133Z,7
2016-04-30T00:24:52.133Z,7.1
2016-04-30T00:25:02.149Z,7
2016-04-30T00:25:12.149Z,7.1
2016-04-30T00:25:21.996Z,7
2016-04-30T00:25:32.153Z,7
2016-04-30T00:25:42.153Z,7
2016-04-30T00:25:52.153Z,7
2016-04-30T00:26:02.153Z,7
2016-04-30T00:26:12.012Z,7
2016-04-30T00:26:22.155Z,7
2016-04-30T00:26:32.170Z,7
2016-04-30T00:26:42.155Z,6.9
2016-04-30T00:26:52.155Z,7
2016-04-30T00:27:02.155Z,7
2016-04-30T00:27:12.155Z,7
2016-04-30T00:27:22.017Z,7
2016-04-30T00:27:32.173Z,7
2016-04-30T00:27:42.017Z,7
2016-04-30T00:27:52.173Z,7
2016-04-30T00:28:02.158Z,7
2016-04-30T00:28:12.158Z,7
2016-04-30T00:28:22.175Z,6.9
2016-04-30T00:28:32.175Z,6.9
2016-04-30T00:28:42.175Z,7
2016-04-30T00:28:52.175Z,6.9
2016-04-30T00:29:02.019Z,7
2016-04-30T00:29:12.019Z,6.9
2016-04-30T00:29:22.178Z,6.9
2016-04-30T00:29:32.178Z,6.9
2016-04-30T00:29:42.178Z,6.8
2016-04-30T00:29:52.038Z,6.8
2016-04-30T00:30:02.194Z,6.9
2016-04-30T00:30:12.194Z,6.8
2016-04-30T00:30:22.180Z,6.9
2016-04-30T00:30:32.196Z,6.8
2016-04-30T00:30:42.196Z,6.8
2016-04-30T00:30:52.040Z,6.8
2016-04-30T00:31:02.196Z,6.9
2016-04-30T00:31:12.196Z,6.9
2016-04-30T00:31:22.200Z,6.8
2016-04-30T00:31:32.200Z,6.8
2016-04-30T00:31:42.200Z,6.8
2016-04-30T00:31:52.200Z,6.9
2016-04-30T00:32:02.200Z,6.8
2016-04-30T00:32:12.200Z,6.9
2016-04-30T00:32:22.202Z,6.9
2016-04-30T00:32:32.249Z,6.9
2016-04-30T00:32:42.061Z,6.9
2016-04-30T00:32:52.202Z,6.9
2016-04-30T00:33:02.202Z,6.9
2016-04-30T00:33:12.202Z,6.9
2016-04-30T00:33:22.205Z,6.8
2016-04-30T00:33:32.221Z,6.8
2016-04-30T00:33:42.221Z,6.9
2016-04-30T00:33:52.221Z,6.8
2016-04-30T00:34:02.064Z,6.9
2016-04-30T00:34:12.221Z,6.9
2016-04-30T00:34:22.223Z,6.9
2016-04-30T00:34:32.223Z,6.9
2016-04-30T00:34:42.223Z,6.8
2016-04-30T00:34:52.223Z,6.9
2016-04-30T00:35:02.223Z,6.8
2016-04-30T00:35:12.082Z,6.9
2016-04-30T00:35:22.085Z,6.9
2016-04-30T00:35:32.085Z,6.9
2016-04-30T00:35:42.241Z,6.8
2016-04-30T00:35:52.226Z,6.8
2016-04-30T00:36:02.241Z,6.9
2016-04-30T00:36:12.226Z,6.8
2016-04-30T00:36:22.244Z,6.9
2016-04-30T00:36:32.244Z,6.8
2016-04-30T00:36:42.244Z,6.9
2016-04-30T00:36:52.244Z,6.9
2016-04-30T00:37:02.244Z,6.8
2016-04-30T00:37:12.260Z,6.9
2016-04-30T00:37:22.247Z,6.9
2016-04-30T00:37:32.247Z,6.8
2016-04-30T00:37:42.247Z,6.9
2016-04-30T00:37:52.247Z,6.9
2016-04-30T00:38:02.091Z,6.9
2016-04-30T00:38:12.247Z,6.9
2016-04-30T00:38:22.249Z,6.8
2016-04-30T00:38:32.249Z,6.9
2016-04-30T00:38:42.249Z,6.9
2016-04-30T00:38:52.249Z,6.8
2016-04-30T00:39:02.296Z,6.9
2016-04-30T00:39:12.249Z,6.9
2016-04-30T00:39:22.267Z,6.9
2016-04-30T00:39:32.111Z,6.8
2016-04-30T00:39:42.267Z,6.9
2016-04-30T00:39:52.267Z,7
2016-04-30T00:40:02.111Z,7
2016-04-30T00:40:12.376Z,6.8
2016-04-30T00:40:22.270Z,7
2016-04-30T00:40:32.114Z,7
2016-04-30T00:40:42.270Z,6.9
2016-04-30T00:40:52.270Z,7
2016-04-30T00:41:02.270Z,7
2016-04-30T00:41:12.270Z,7
2016-04-30T00:41:22.273Z,7
2016-04-30T00:41:32.117Z,7
2016-04-30T00:41:42.273Z,7
2016-04-30T00:41:52.288Z,7
2016-04-30T00:42:02.288Z,7
2016-04-30T00:42:12.288Z,7
2016-04-30T00:42:22.276Z,7
2016-04-30T00:42:32.291Z,7.1
2016-04-30T00:42:42.291Z,7.1
2016-04-30T00:42:52.276Z,7.1
2016-04-30T00:43:02.291Z,7.1
2016-04-30T00:43:12.291Z,7.1
2016-04-30T00:43:22.294Z,7.1
2016-04-30T00:43:32.294Z,7.1
2016-04-30T00:43:42.294Z,7.1
2016-04-30T00:43:52.294Z,7.1
2016-04-30T00:44:02.310Z,7.1
2016-04-30T00:44:12.294Z,7.2
2016-04-30T00:44:22.296Z,7.2
2016-04-30T00:44:32.296Z,7.1
2016-04-30T00:44:42.312Z,7.1
2016-04-30T00:44:52.312Z,7.1
2016-04-30T00:45:02.312Z,7.1
2016-04-30T00:45:12.312Z,7.1
2016-04-30T00:45:22.159Z,7.1
2016-04-30T00:45:32.315Z,7.2
2016-04-30T00:45:42.315Z,7.1
2016-04-30T00:45:52.315Z,7.2
2016-04-30T00:46:02.331Z,7.2
2016-04-30T00:46:12.315Z,7.2
2016-04-30T00:46:22.318Z,7.2
2016-04-30T00:46:32.334Z,7.1
2016-04-30T00:46:42.318Z,7.2
2016-04-30T00:46:52.318Z,7.1
2016-04-30T00:47:02.318Z,7.1
2016-04-30T00:47:12.334Z,7.2
2016-04-30T00:47:22.336Z,7.3
2016-04-30T00:47:32.336Z,7.2
2016-04-30T00:47:42.179Z,7.2
2016-04-30T00:47:52.320Z,7.2
2016-04-30T00:48:02.336Z,7.2
2016-04-30T00:48:12.320Z,7.2
2016-04-30T00:48:22.339Z,7.2
2016-04-30T00:48:32.511Z,7.2
2016-04-30T00:48:43.542Z,7.3
2016-04-30T00:48:53.979Z,7.3
2016-04-30T00:49:02.339Z,7.3
2016-04-30T00:49:12.354Z,7.2
2016-04-30T00:49:22.357Z,7.2
2016-04-30T00:49:32.342Z,7.3
2016-04-30T00:49:42.342Z,7.3
2016-04-30T00:49:52.342Z,7.2
2016-04-30T00:50:02.342Z,7.3
2016-04-30T00:50:12.342Z,7.3
2016-04-30T00:50:22.203Z,7.3
2016-04-30T00:50:32.344Z,7.2
2016-04-30T00:50:42.359Z,7.3
2016-04-30T00:50:52.359Z,7.2
2016-04-30T00:51:02.359Z,7.3
2016-04-30T00:51:12.359Z,7.2
2016-04-30T00:51:22.362Z,7.3
2016-04-30T00:51:32.362Z,7.3
2016-04-30T00:51:42.362Z,7.3
2016-04-30T00:51:52.362Z,7.3
2016-04-30T00:52:02.362Z,7.4
2016-04-30T00:52:12.362Z,7.3
2016-04-30T00:52:22.365Z,7.3
2016-04-30T00:52:32.381Z,7.3
2016-04-30T00:52:42.365Z,7.4
2016-04-30T00:52:52.365Z,7.3
2016-04-30T00:53:02.225Z,7.3
2016-04-30T00:53:12.365Z,7.3
2016-04-30T00:53:22.384Z,7.4
2016-04-30T00:53:32.384Z,7.4
2016-04-30T00:53:42.384Z,7.3
2016-04-30T00:53:52.384Z,7.3
2016-04-30T00:54:02.228Z,7.4
2016-04-30T00:54:12.384Z,7.3
2016-04-30T00:54:22.386Z,7.3
2016-04-30T00:54:32.230Z,7.3
2016-04-30T00:54:42.230Z,7.3
2016-04-30T00:54:52.386Z,7.4
2016-04-30T00:55:02.386Z,7.4
2016-04-30T00:55:12.386Z,7.4
2016-04-30T00:55:22.389Z,7.4
2016-04-30T00:55:32.389Z,7.4
2016-04-30T00:55:42.389Z,7.4
2016-04-30T00:55:52.389Z,7.4
2016-04-30T00:56:02.405Z,7.4
2016-04-30T00:56:12.405Z,7.4
2016-04-30T00:56:22.391Z,7.3
2016-04-30T00:56:32.407Z,7.4
2016-04-30T00:56:42.250Z,7.4
2016-04-30T00:56:52.407Z,7.4
2016-04-30T00:57:02.407Z,7.4
2016-04-30T00:57:12.438Z,7.4
2016-04-30T00:57:22.269Z,7.4
2016-04-30T00:57:32.410Z,7.4
2016-04-30T00:57:42.410Z,7.3
2016-04-30T00:57:52.410Z,7.4
2016-04-30T00:58:02.410Z,7.4
2016-04-30T00:58:12.410Z,7.3
2016-04-30T00:58:22.428Z,7.4
2016-04-30T00:58:32.428Z,7.3
2016-04-30T00:58:42.413Z,7.3
2016-04-30T00:58:52.413Z,7.3
2016-04-30T00:59:02.428Z,7.4
2016-04-30T00:59:12.428Z,7.3
2016-04-30T00:59:22.431Z,7.4
2016-04-30T00:59:32.431Z,7.4
2016-04-30T00:59:42.447Z,7.5
2016-04-30T00:59:52.431Z,7.4
2016-04-30T01:00:02.431Z,7.5
2016-04-30T01:00:12.431Z,7.5
2016-04-30T01:00:22.433Z,7.5
2016-04-30T01:00:32.433Z,7.4
2016-04-30T01:00:42.433Z,7.5
2016-04-30T01:00:52.433Z,7.5
2016-04-30T01:01:02.449Z,7.5
2016-04-30T01:01:12.449Z,7.4
2016-04-30T01:01:22.436Z,7.4
2016-04-30T01:01:32.296Z,7.4
2016-04-30T01:01:42.436Z,7.5
2016-04-30T01:01:52.436Z,7.5
2016-04-30T01:02:02.452Z,7.4
2016-04-30T01:02:12.452Z,7.4
2016-04-30T01:02:22.454Z,7.4
2016-04-30T01:02:32.454Z,7.4
2016-04-30T01:02:42.454Z,7.5
2016-04-30T01:02:52.454Z,7.5
2016-04-30T01:03:02.454Z,7.5
2016-04-30T01:03:12.454Z,7.5
2016-04-30T01:03:22.489Z,7.5
2016-04-30T01:03:32.333Z,7.5
2016-04-30T01:03:42.473Z,7.4
2016-04-30T01:03:52.473Z,7.5
2016-04-30T01:04:02.739Z,7.5
2016-04-30T01:04:12.473Z,7.4
2016-04-30T01:04:22.475Z,7.4
2016-04-30T01:04:32.460Z,7.4
2016-04-30T01:04:42.475Z,7.4
2016-04-30T01:04:52.475Z,7.4
2016-04-30T01:05:02.319Z,7.4
2016-04-30T01:05:12.475Z,7.4
2016-04-30T01:05:22.321Z,7.4
2016-04-30T01:05:32.477Z,7.4
2016-04-30T01:05:42.477Z,7.4
2016-04-30T01:05:52.477Z,7.4
2016-04-30T01:06:02.477Z,7.3
2016-04-30T01:06:12.493Z,7.4
2016-04-30T01:06:22.497Z,7.4
2016-04-30T01:06:32.481Z,7.4
2016-04-30T01:06:42.497Z,7.5
2016-04-30T01:06:52.481Z,7.4
2016-04-30T01:07:02.497Z,7.4
2016-04-30T01:07:12.497Z,7.4
2016-04-30T01:07:22.499Z,7.4
2016-04-30T01:07:32.499Z,7.4
2016-04-30T01:07:42.530Z,7.4
2016-04-30T01:07:52.343Z,7.4
2016-04-30T01:08:02.483Z,7.4
2016-04-30T01:08:12.515Z,7.4
2016-04-30T01:08:22.502Z,7.3
2016-04-30T01:08:32.502Z,7.4
2016-04-30T01:08:42.518Z,7.4
2016-04-30T01:08:52.502Z,7.4
2016-04-30T01:09:02.518Z,7.4
2016-04-30T01:09:12.361Z,7.4
2016-04-30T01:09:22.363Z,7.4
2016-04-30T01:09:32.520Z,7.4
2016-04-30T01:09:42.504Z,7.4
2016-04-30T01:09:52.504Z,7.5
2016-04-30T01:10:02.520Z,7.4
2016-04-30T01:10:12.520Z,7.4
2016-04-30T01:10:22.523Z,7.5
2016-04-30T01:10:32.523Z,7.4
2016-04-30T01:10:42.523Z,7.4
2016-04-30T01:10:52.523Z,7.4
2016-04-30T01:11:02.570Z,7.4
2016-04-30T01:11:12.523Z,7.5
2016-04-30T01:11:22.526Z,7.5
2016-04-30T01:11:32.557Z,7.4
2016-04-30T01:11:42.526Z,7.5
2016-04-30T01:11:52.526Z,7.4
2016-04-30T01:12:02.526Z,7.5
2016-04-30T01:12:12.385Z,7.5
2016-04-30T01:12:22.544Z,7.4
2016-04-30T01:12:32.544Z,7.5
2016-04-30T01:12:42.560Z,7.4
2016-04-30T01:12:52.544Z,7.5
2016-04-30T01:13:02.544Z,7.5
2016-04-30T01:13:12.544Z,7.5
2016-04-30T01:13:22.546Z,7.4
2016-04-30T01:13:32.406Z,7.5
2016-04-30T01:13:42.546Z,7.5
2016-04-30T01:13:52.406Z,7.5
2016-04-30T01:14:02.546Z,7.5
2016-04-30T01:14:12.562Z,7.5
2016-04-30T01:14:22.549Z,7.5
2016-04-30T01:14:32.549Z,7.5
2016-04-30T01:14:42.565Z,7.5
2016-04-30T01:14:52.549Z,7.5
2016-04-30T01:15:02.565Z,7.4
2016-04-30T01:15:12.565Z,7.5
2016-04-30T01:15:22.568Z,7.5
2016-04-30T01:15:32.584Z,7.5
2016-04-30T01:15:42.568Z,7.5
2016-04-30T01:15:52.568Z,7.5
2016-04-30T01:16:02.568Z,7.6
2016-04-30T01:16:12.427Z,7.5
2016-04-30T01:16:22.570Z,7.5
2016-04-30T01:16:32.570Z,7.5
2016-04-30T01:16:42.586Z,7.5
2016-04-30T01:16:52.570Z,7.5
2016-04-30T01:17:02.570Z,7.5
2016-04-30T01:17:12.570Z,7.5
2016-04-30T01:17:22.620Z,7.5
2016-04-30T01:17:32.573Z,7.6
2016-04-30T01:17:42.573Z,7.5
2016-04-30T01:17:52.589Z,7.5
2016-04-30T01:18:02.432Z,7.5
2016-04-30T01:18:12.589Z,7.5
2016-04-30T01:18:22.748Z,7.5
2016-04-30T01:18:32.451Z,7.5
2016-04-30T01:18:42.967Z,7.5
2016-04-30T01:18:52.607Z,7.5
2016-04-30T01:19:02.638Z,7.6
2016-04-30T01:19:12.592Z,7.5
2016-04-30T01:19:22.594Z,7.6
2016-04-30T01:19:32.594Z,7.6
2016-04-30T01:19:42.594Z,7.5
2016-04-30T01:19:52.594Z,7.5
2016-04-30T01:20:02.609Z,7.6
2016-04-30T01:20:12.594Z,7.5
2016-04-30T01:20:22.612Z,7.6
2016-04-30T01:20:32.612Z,7.5
2016-04-30T01:20:42.612Z,7.5
2016-04-30T01:20:52.612Z,7.6
2016-04-30T01:21:02.612Z,7.5
2016-04-30T01:21:12.612Z,7.5
2016-04-30T01:21:22.615Z,7.5
2016-04-30T01:21:32.459Z,7.6
2016-04-30T01:21:42.615Z,7.6
2016-04-30T01:21:52.615Z,7.6
2016-04-30T01:22:02.615Z,7.6
2016-04-30T01:22:12.615Z,7.7
2016-04-30T01:22:22.617Z,7.5
2016-04-30T01:22:32.477Z,7.6
2016-04-30T01:22:42.633Z,7.6
2016-04-30T01:22:52.727Z,7.7
2016-04-30T01:23:02.633Z,7.5
2016-04-30T01:23:12.633Z,7.6
2016-04-30T01:23:22.620Z,7.6
2016-04-30T01:23:32.636Z,7.7
2016-04-30T01:23:42.636Z,7.6
2016-04-30T01:23:52.620Z,7.6
2016-04-30T01:24:02.636Z,7.6
2016-04-30T01:24:12.667Z,7.6
2016-04-30T01:24:22.639Z,7.6
2016-04-30T01:24:32.639Z,7.6
2016-04-30T01:24:42.654Z,7.6
2016-04-30T01:24:52.701Z,7.6
2016-04-30T01:25:02.795Z,7.6
2016-04-30T01:25:12.498Z,7.6
2016-04-30T01:25:22.641Z,7.5
2016-04-30T01:25:32.656Z,7.6
2016-04-30T01:25:42.641Z,7.6
2016-04-30T01:25:52.656Z,7.6
2016-04-30T01:26:02.656Z,7.6
2016-04-30T01:26:12.656Z,7.6
2016-04-30T01:26:22.503Z,7.7
2016-04-30T01:26:32.659Z,7.7
2016-04-30T01:26:42.503Z,7.6
2016-04-30T01:26:52.675Z,7.7
2016-04-30T01:27:02.503Z,7.6
2016-04-30T01:27:12.659Z,7.6
2016-04-30T01:27:22.522Z,7.6
2016-04-30T01:27:32.662Z,7.6
2016-04-30T01:27:42.662Z,7.7
2016-04-30T01:27:52.662Z,7.7
2016-04-30T01:28:02.522Z,7.6
2016-04-30T01:28:12.662Z,7.7
2016-04-30T01:28:22.524Z,7.6
2016-04-30T01:28:32.680Z,7.7
2016-04-30T01:28:42.680Z,7.6
2016-04-30T01:28:52.680Z,7.7
2016-04-30T01:29:02.680Z,7.7
2016-04-30T01:29:12.680Z,7.7
2016-04-30T01:29:22.683Z,7.7
2016-04-30T01:29:32.527Z,7.7
2016-04-30T01:29:42.683Z,7.7
2016-04-30T01:29:52.542Z,7.7
2016-04-30T01:30:02.699Z,7.7
2016-04-30T01:30:12.683Z,7.7
2016-04-30T01:30:22.685Z,7.7
2016-04-30T01:30:32.701Z,7.7
2016-04-30T01:30:42.716Z,7.7
2016-04-30T01:30:52.685Z,7.7
2016-04-30T01:31:02.701Z,7.6
2016-04-30T01:31:12.701Z,7.7
2016-04-30T01:31:22.704Z,7.7
2016-04-30T01:31:32.688Z,7.8
2016-04-30T01:31:42.547Z,7.7
2016-04-30T01:31:52.704Z,7.7
2016-04-30T01:32:02.719Z,7.6
2016-04-30T01:32:12.719Z,7.7
2016-04-30T01:32:22.708Z,7.7
2016-04-30T01:32:32.708Z,7.6
2016-04-30T01:32:42.708Z,7.7
2016-04-30T01:32:52.708Z,7.7
2016-04-30T01:33:02.708Z,7.7
2016-04-30T01:33:12.723Z,7.7
2016-04-30T01:33:22.710Z,7.8
2016-04-30T01:33:32.569Z,7.8
2016-04-30T01:33:42.694Z,7.7
2016-04-30T01:33:52.725Z,7.7
2016-04-30T01:34:03.069Z,7.8
2016-04-30T01:34:12.725Z,7.6
2016-04-30T01:34:22.728Z,7.8
2016-04-30T01:34:32.728Z,7.8
2016-04-30T01:34:42.728Z,7.7
2016-04-30T01:34:52.728Z,7.8
2016-04-30T01:35:02.728Z,7.7
2016-04-30T01:35:12.728Z,7.7
2016-04-30T01:35:22.746Z,7.8
2016-04-30T01:35:32.746Z,7.8
2016-04-30T01:35:42.730Z,7.8
2016-04-30T01:35:52.746Z,7.8
2016-04-30T01:36:02.762Z,7.8
2016-04-30T01:36:12.746Z,7.7
2016-04-30T01:36:22.593Z,7.7
2016-04-30T01:36:32.749Z,7.8
2016-04-30T01:36:42.749Z,7.7
2016-04-30T01:36:52.749Z,7.7
2016-04-30T01:37:02.749Z,7.7
2016-04-30T01:37:12.765Z,7.7
2016-04-30T01:37:22.752Z,7.8
2016-04-30T01:37:32.752Z,7.8
2016-04-30T01:37:42.752Z,7.8
2016-04-30T01:37:52.752Z,7.7
2016-04-30T01:38:02.768Z,7.7
2016-04-30T01:38:12.752Z,7.8
2016-04-30T01:38:22.629Z,7.8
2016-04-30T01:38:32.613Z,7.8
2016-04-30T01:38:42.754Z,7.9
2016-04-30T01:38:52.770Z,7.8
2016-04-30T01:39:02.770Z,7.8
2016-04-30T01:39:12.629Z,7.7
2016-04-30T01:39:22.632Z,7.8
2016-04-30T01:39:32.773Z,7.8
2016-04-30T01:39:42.773Z,7.8
2016-04-30T01:39:52.616Z,7.8
2016-04-30T01:40:02.773Z,7.8
2016-04-30T01:40:12.616Z,7.7
2016-04-30T01:40:22.776Z,7.7
2016-04-30T01:40:32.791Z,7.7
2016-04-30T01:40:42.776Z,7.8
2016-04-30T01:40:52.635Z,7.7
2016-04-30T01:41:02.776Z,7.8
2016-04-30T01:41:12.635Z,7.8
2016-04-30T01:41:22.778Z,7.8
2016-04-30T01:41:32.778Z,7.8
2016-04-30T01:41:42.793Z,7.8
2016-04-30T01:41:52.637Z,7.8
2016-04-30T01:42:02.793Z,7.8
2016-04-30T01:42:12.793Z,7.9
2016-04-30T01:42:22.796Z,7.8
2016-04-30T01:42:32.796Z,7.8
2016-04-30T01:42:42.796Z,7.9
2016-04-30T01:42:52.796Z,7.9
2016-04-30T01:43:02.796Z,7.9
2016-04-30T01:43:12.812Z,7.9
2016-04-30T01:43:22.815Z,7.9
2016-04-30T01:43:32.830Z,7.9
2016-04-30T01:43:42.815Z,7.9
2016-04-30T01:43:52.659Z,7.9
2016-04-30T01:44:02.799Z,7.8
2016-04-30T01:44:12.815Z,7.9
2016-04-30T01:44:22.662Z,7.8
2016-04-30T01:44:32.818Z,7.8
2016-04-30T01:44:42.818Z,7.9
2016-04-30T01:44:52.818Z,7.9
2016-04-30T01:45:02.833Z,7.9
2016-04-30T01:45:12.818Z,7.9
2016-04-30T01:45:22.821Z,7.8
2016-04-30T01:45:32.821Z,7.9
2016-04-30T01:45:42.821Z,7.8
2016-04-30T01:45:52.821Z,7.8
2016-04-30T01:46:02.821Z,7.8
2016-04-30T01:46:12.836Z,7.9
2016-04-30T01:46:22.823Z,7.8
2016-04-30T01:46:32.838Z,7.8
2016-04-30T01:46:42.838Z,7.8
2016-04-30T01:46:52.823Z,7.8
2016-04-30T01:47:02.823Z,7.9
2016-04-30T01:47:12.838Z,7.9
2016-04-30T01:47:22.840Z,7.8
2016-04-30T01:47:32.840Z,7.8
2016-04-30T01:47:42.840Z,7.9
2016-04-30T01:47:52.840Z,7.9
2016-04-30T01:48:02.840Z,7.9
2016-04-30T01:48:12.840Z,7.9
2016-04-30T01:48:23.406Z,7.9
2016-04-30T01:48:33.172Z,7.8
2016-04-30T01:48:42.703Z,7.9
2016-04-30T01:48:52.859Z,7.9
2016-04-30T01:49:02.859Z,7.9
2016-04-30T01:49:13.312Z,7.9
2016-04-30T01:49:22.862Z,7.9
2016-04-30T01:49:32.862Z,7.9
2016-04-30T01:49:42.846Z,7.9
2016-04-30T01:49:52.862Z,7.9
2016-04-30T01:50:02.862Z,7.8
2016-04-30T01:50:12.721Z,7.9
2016-04-30T01:50:22.864Z,7.9
2016-04-30T01:50:32.864Z,7.9
2016-04-30T01:50:42.864Z,7.9
2016-04-30T01:50:52.864Z,7.9
2016-04-30T01:51:02.723Z,7.9
2016-04-30T01:51:12.911Z,7.9
2016-04-30T01:51:22.931Z,7.9
2016-04-30T01:51:32.868Z,8
2016-04-30T01:51:42.868Z,7.8
2016-04-30T01:51:52.884Z,7.9
2016-04-30T01:52:02.884Z,7.9
2016-04-30T01:52:12.899Z,7.9
2016-04-30T01:52:22.886Z,7.9
2016-04-30T01:52:32.901Z,7.9
2016-04-30T01:52:42.886Z,7.9
2016-04-30T01:52:52.886Z,7.8
2016-04-30T01:53:02.886Z,7.9
2016-04-30T01:53:12.886Z,7.8
2016-04-30T01:53:22.889Z,7.9
2016-04-30T01:53:32.904Z,7.9
2016-04-30T01:53:42.904Z,7.9
2016-04-30T01:53:52.889Z,7.9
2016-04-30T01:54:02.889Z,7.9
2016-04-30T01:54:12.748Z,7.9
2016-04-30T01:54:22.906Z,7.9
2016-04-30T01:54:32.906Z,7.8
2016-04-30T01:54:42.891Z,7.9
2016-04-30T01:54:52.750Z,7.9
2016-04-30T01:55:02.906Z,7.9
2016-04-30T01:55:12.766Z,7.9
2016-04-30T01:55:22.909Z,7.9
2016-04-30T01:55:32.909Z,7.9
2016-04-30T01:55:42.909Z,8
2016-04-30T01:55:52.909Z,8
2016-04-30T01:56:02.925Z,7.9
2016-04-30T01:56:12.909Z,7.9
2016-04-30T01:56:22.912Z,7.9
2016-04-30T01:56:32.912Z,7.9
2016-04-30T01:56:42.928Z,7.9
2016-04-30T01:56:52.928Z,7.9
2016-04-30T01:57:02.928Z,7.9
2016-04-30T01:57:12.928Z,7.9
2016-04-30T01:57:22.930Z,7.9
2016-04-30T01:57:32.930Z,7.9
2016-04-30T01:57:42.946Z,7.9
2016-04-30T01:57:52.946Z,7.9
2016-04-30T01:58:02.930Z,7.9
2016-04-30T01:58:12.977Z,7.9
2016-04-30T01:58:22.933Z,7.8
2016-04-30T01:58:32.933Z,7.8
2016-04-30T01:58:42.933Z,7.9
2016-04-30T01:58:52.933Z,7.9
2016-04-30T01:59:02.949Z,7.9
2016-04-30T01:59:12.933Z,7.8
2016-04-30T01:59:22.952Z,7.8
2016-04-30T01:59:32.952Z,7.9
2016-04-30T01:59:42.936Z,7.8
2016-04-30T01:59:52.936Z,7.9
2016-04-30T02:00:02.967Z,7.9
2016-04-30T02:00:12.952Z,7.9
2016-04-30T02:00:22.955Z,7.9
2016-04-30T02:00:32.955Z,7.9
2016-04-30T02:00:42.955Z,7.9
2016-04-30T02:00:52.955Z,7.9
2016-04-30T02:01:02.955Z,7.9
2016-04-30T02:01:12.955Z,7.9
2016-04-30T02:01:22.816Z,8
2016-04-30T02:01:32.957Z,7.9
2016-04-30T02:01:42.972Z,7.9
2016-04-30T02:01:52.972Z,7.9
2016-04-30T02:02:02.972Z,8
2016-04-30T02:02:12.972Z,7.9
2016-04-30T02:02:22.975Z,8
2016-04-30T02:02:32.975Z,7.9
2016-04-30T02:02:42.960Z,7.9
2016-04-30T02:02:52.991Z,7.9
2016-04-30T02:03:02.975Z,7.9
2016-04-30T02:03:12.835Z,7.9
2016-04-30T02:03:22.978Z,7.9
2016-04-30T02:03:32.838Z,7.9
2016-04-30T02:03:42.978Z,8
2016-04-30T02:03:53.181Z,8
2016-04-30T02:04:02.978Z,8
2016-04-30T02:04:12.994Z,7.9
2016-04-30T02:04:22.997Z,7.9
2016-04-30T02:04:32.997Z,7.9
2016-04-30T02:04:42.997Z,7.9
2016-04-30T02:04:52.997Z,7.9
2016-04-30T02:05:02.997Z,8
2016-04-30T02:05:12.841Z,7.9
2016-04-30T02:05:22.843Z,8
2016-04-30T02:05:32.999Z,7.9
2016-04-30T02:05:42.999Z,8
2016-04-30T02:05:52.999Z,8
2016-04-30T02:06:02.999Z,7.9
2016-04-30T02:06:12.843Z,7.9
2016-04-30T02:06:23.002Z,7.8
2016-04-30T02:06:33.017Z,7.9
2016-04-30T02:06:42.861Z,8
2016-04-30T02:06:53.033Z,7.9
2016-04-30T02:07:02.861Z,7.9
2016-04-30T02:07:13.017Z,7.9
2016-04-30T02:07:23.019Z,7.9
2016-04-30T02:07:33.019Z,7.9
2016-04-30T02:07:43.035Z,7.9
2016-04-30T02:07:53.019Z,7.9
2016-04-30T02:08:03.019Z,7.9
2016-04-30T02:08:13.019Z,7.9
2016-04-30T02:08:23.022Z,7.9
2016-04-30T02:08:33.054Z,7.9
2016-04-30T02:08:43.022Z,7.9
2016-04-30T02:08:53.022Z,7.9
2016-04-30T02:09:03.022Z,7.9
2016-04-30T02:09:12.882Z,7.9
2016-04-30T02:09:22.885Z,7.9
2016-04-30T02:09:33.041Z,7.9
2016-04-30T02:09:43.041Z,8
2016-04-30T02:09:53.041Z,7.9
2016-04-30T02:10:03.041Z,8
2016-04-30T02:10:13.041Z,7.9
2016-04-30T02:10:23.043Z,7.9
2016-04-30T02:10:33.043Z,7.9
2016-04-30T02:10:43.059Z,7.9
2016-04-30T02:10:53.059Z,7.9
2016-04-30T02:11:03.043Z,8
2016-04-30T02:11:13.043Z,8
2016-04-30T02:11:23.046Z,7.9
2016-04-30T02:11:33.046Z,7.9
2016-04-30T02:11:43.062Z,7.9
2016-04-30T02:11:52.921Z,8
2016-04-30T02:12:03.062Z,7.9
2016-04-30T02:12:13.062Z,7.9
2016-04-30T02:12:23.065Z,7.9
2016-04-30T02:12:32.908Z,7.9
2016-04-30T02:12:43.065Z,8
2016-04-30T02:12:53.065Z,7.9
2016-04-30T02:13:03.065Z,7.9
2016-04-30T02:13:13.065Z,7.9
2016-04-30T02:13:23.083Z,7.9
2016-04-30T02:13:33.068Z,7.9
2016-04-30T02:13:43.068Z,8
2016-04-30T02:13:53.068Z,7.9
2016-04-30T02:14:03.083Z,7.9
2016-04-30T02:14:13.068Z,7.9
2016-04-30T02:14:23.070Z,7.9
2016-04-30T02:14:33.085Z,7.9
2016-04-30T02:14:42.929Z,7.9
2016-04-30T02:14:53.085Z,7.9
2016-04-30T02:15:03.085Z,7.9
2016-04-30T02:15:13.085Z,8
2016-04-30T02:15:23.087Z,7.9
2016-04-30T02:15:33.087Z,7.9
2016-04-30T02:15:42.947Z,7.9
2016-04-30T02:15:53.087Z,8
2016-04-30T02:16:03.087Z,7.9
2016-04-30T02:16:13.103Z,7.9
2016-04-30T02:16:23.090Z,8
2016-04-30T02:16:33.090Z,7.9
2016-04-30T02:16:42.950Z,7.9
2016-04-30T02:16:53.090Z,7.9
2016-04-30T02:17:03.090Z,8
2016-04-30T02:17:13.106Z,7.9
2016-04-30T02:17:23.094Z,7.9
2016-04-30T02:17:33.110Z,7.9
2016-04-30T02:17:43.110Z,7.9
2016-04-30T02:17:53.110Z,8
2016-04-30T02:18:03.110Z,7.9
2016-04-30T02:18:12.969Z,8
2016-04-30T02:18:22.956Z,7.9